Time;durP1;ratioP1;P1;durP2;ratioP2;P2;SDS_P1;SDS_P2;PMS_P1;PMS_P2;Temp;Humidity;BMP_temperature;BMP_pressure;BME280_temperature;BME280_humidity;BME280_pressure;Samples;Min_cycle;Max_cycle;Signal;HPM_P1;HPM_P2
2022/07/10 00:02:17;;;;;;;4.32;3.20;;;16.80;99.90;;;;;;5072500;28;20024;-78
2022/07/10 00:04:42;;;;;;;5.03;2.75;;;16.70;99.90;;;;;;5075376;28;20390;-78
2022/07/10 00:07:09;;;;;;;5.65;3.08;;;;;;;;;;5076082;28;20064;-77
2022/07/10 00:09:35;;;;;;;7.22;3.58;;;16.50;99.90;;;;;;5075511;28;20028;-76
2022/07/10 00:12:01;;;;;;;4.35;3.15;;;16.60;99.90;;;;;;5074670;28;20044;-78
2022/07/10 00:14:27;;;;;;;6.57;3.40;;;16.60;99.90;;;;;;5075279;28;20036;-75
2022/07/10 00:16:53;;;;;;;8.52;3.20;;;16.50;99.90;;;;;;5074889;28;20383;-67
2022/07/10 00:19:19;;;;;;;3.80;3.15;;;16.40;99.90;;;;;;5074743;28;20085;-76
2022/07/10 00:21:44;;;;;;;5.05;2.85;;;16.40;99.90;;;;;;5072875;28;20023;-77
2022/07/10 00:24:10;;;;;;;5.68;3.38;;;16.40;99.90;;;;;;5072581;28;20028;-77
2022/07/10 00:26:38;;;;;;;5.43;3.53;;;;;;;;;;5075126;28;20120;-77
2022/07/10 00:29:05;;;;;;;3.40;2.83;;;;;;;;;;5075091;28;20028;-78
2022/07/10 00:31:34;;;;;;;3.63;2.38;;;;;;;;;;5073640;28;20463;-78
2022/07/10 00:34:00;;;;;;;3.55;2.90;;;;;;;;;;5074908;28;20074;-78
2022/07/10 00:36:34;;;;;;;3.28;1.98;;;;;;;;;;5074738;28;20029;-77
2022/07/10 00:39:02;;;;;;;3.92;2.83;;;;;;;;;;5074565;28;20037;-77
2022/07/10 00:41:36;;;;;;;4.25;2.67;;;16.20;99.90;;;;;;5074738;28;20052;-73
2022/07/10 00:44:03;;;;;;;6.47;2.70;;;16.20;99.90;;;;;;5074686;28;20083;-77
2022/07/10 00:46:39;;;;;;;4.55;2.58;;;;;;;;;;5074531;28;20108;-75
2022/07/10 00:49:08;;;;;;;5.50;2.97;;;16.10;99.90;;;;;;5074030;28;20024;-70
2022/07/10 00:51:36;;;;;;;4.80;2.50;;;16.20;99.90;;;;;;5067713;28;20029;-77
2022/07/10 00:54:02;;;;;;;4.72;2.30;;;16.20;99.90;;;;;;5053319;28;20024;-75
2022/07/10 00:56:29;;;;;;;6.00;2.53;;;;;;;;;;5058793;28;20376;-76
2022/07/10 00:58:55;;;;;;;6.90;3.25;;;;;;;;;;5052581;28;20518;-78
2022/07/10 01:01:22;;;;;;;4.00;2.80;;;;;;;;;;5057292;28;20016;-70
2022/07/10 01:03:48;;;;;;;5.07;2.63;;;16.00;99.90;;;;;;5064973;28;20032;-74
2022/07/10 01:06:15;;;;;;;4.68;2.67;;;16.10;99.90;;;;;;5069289;28;20023;-75
2022/07/10 01:08:42;;;;;;;5.05;2.50;;;16.10;99.90;;;;;;5054212;28;20059;-76
2022/07/10 01:11:09;;;;;;;7.10;2.55;;;16.00;99.90;;;;;;5052733;28;20041;-70
2022/07/10 01:13:36;;;;;;;10.05;3.00;;;16.00;99.90;;;;;;5086878;28;20044;-70
2022/07/10 01:16:02;;;;;;;4.18;2.60;;;15.90;99.90;;;;;;5053028;28;20031;-73
2022/07/10 01:18:29;;;;;;;4.82;2.55;;;15.90;99.90;;;;;;5052396;28;20037;-76
2022/07/10 01:20:55;;;;;;;3.30;2.65;;;15.90;99.90;;;;;;5052522;28;20479;-74
2022/07/10 01:23:22;;;;;;;3.65;2.70;;;15.90;99.90;;;;;;5052594;28;20021;-74
2022/07/10 01:25:49;;;;;;;5.55;2.60;;;15.90;99.90;;;;;;5052692;28;20021;-76
2022/07/10 01:28:17;;;;;;;6.90;2.22;;;15.90;99.90;;;;;;5052299;28;20029;-72
2022/07/10 01:30:43;;;;;;;3.72;2.80;;;15.90;99.90;;;;;;5050102;28;20049;-76
2022/07/10 01:33:09;;;;;;;2.80;2.30;;;15.90;99.90;;;;;;5052105;28;20025;-75
2022/07/10 01:35:34;;;;;;;3.72;2.03;;;16.00;99.90;;;;;;5056132;28;20031;-75
2022/07/10 01:38:00;;;;;;;3.13;2.08;;;15.90;99.90;;;;;;5052138;28;20064;-73
2022/07/10 01:40:27;;;;;;;5.30;2.90;;;15.80;99.90;;;;;;5052257;28;20092;-69
2022/07/10 01:42:53;;;;;;;4.05;2.90;;;15.80;99.90;;;;;;5052174;28;20052;-74
2022/07/10 01:45:19;;;;;;;4.78;2.85;;;15.70;99.90;;;;;;5054837;28;20475;-76
2022/07/10 01:47:45;;;;;;;8.82;2.80;;;15.60;99.90;;;;;;5052032;28;20429;-71
2022/07/10 01:50:11;;;;;;;4.88;2.97;;;15.50;99.90;;;;;;5051985;28;20021;-75
2022/07/10 01:52:37;;;;;;;4.57;2.85;;;15.50;99.90;;;;;;5051813;28;20037;-73
2022/07/10 01:55:04;;;;;;;5.35;3.03;;;15.40;99.90;;;;;;5052112;28;20024;-74
2022/07/10 01:57:30;;;;;;;5.47;2.50;;;15.50;99.90;;;;;;5051863;28;20028;-70
2022/07/10 01:59:56;;;;;;;6.13;3.22;;;15.40;99.90;;;;;;5052348;28;20506;-71
2022/07/10 02:02:22;;;;;;;3.92;2.63;;;15.50;99.90;;;;;;5058023;28;20029;-75
2022/07/10 02:04:47;;;;;;;4.15;2.42;;;15.40;99.90;;;;;;5051464;28;20039;-69
2022/07/10 02:07:16;;;;;;;5.32;2.90;;;15.40;99.90;;;;;;5051958;28;20035;-70
2022/07/10 02:09:43;;;;;;;8.13;3.00;;;15.30;99.90;;;;;;5051628;28;20021;-69
2022/07/10 02:12:11;;;;;;;7.90;2.92;;;15.30;99.90;;;;;;5051497;28;20068;-73
2022/07/10 02:14:37;;;;;;;6.20;3.15;;;15.30;99.90;;;;;;5051638;28;20033;-76
2022/07/10 02:17:03;;;;;;;4.60;2.70;;;15.30;99.90;;;;;;5051574;28;20425;-70
2022/07/10 02:19:29;;;;;;;5.65;3.00;;;15.20;99.90;;;;;;5051690;28;20037;-74
2022/07/10 02:21:55;;;;;;;6.35;3.00;;;15.20;99.90;;;;;;5051500;28;20467;-72
2022/07/10 02:24:21;;;;;;;5.28;2.53;;;15.20;99.90;;;;;;5051391;28;20021;-67
2022/07/10 02:26:48;;;;;;;5.22;2.97;;;15.20;99.90;;;;;;5051133;28;20039;-71
2022/07/10 02:29:14;;;;;;;8.32;2.60;;;15.20;99.90;;;;;;5051540;28;20075;-77
2022/07/10 02:31:40;;;;;;;4.72;2.50;;;15.20;99.90;;;;;;5051231;28;20473;-72
2022/07/10 02:34:14;;;;;;;8.07;3.13;;;15.20;99.90;;;;;;5051310;28;20013;-76
2022/07/10 02:36:40;;;;;;;6.07;2.75;;;15.20;99.90;;;;;;5051369;28;20069;-69
2022/07/10 02:39:07;;;;;;;4.68;2.70;;;15.20;99.90;;;;;;5055487;28;20060;-73
2022/07/10 02:41:33;;;;;;;5.40;2.85;;;15.20;99.90;;;;;;5051191;28;20024;-74
2022/07/10 02:43:58;;;;;;;5.32;2.20;;;15.20;99.90;;;;;;5054558;28;20031;-72
2022/07/10 02:46:25;;;;;;;5.85;2.40;;;15.20;99.90;;;;;;5050572;28;20538;-72
2022/07/10 02:48:50;;;;;;;3.45;2.45;;;15.20;99.90;;;;;;5048175;28;20036;-73
2022/07/10 02:51:17;;;;;;;5.20;2.47;;;15.30;99.90;;;;;;5050480;28;20400;-75
2022/07/10 02:53:42;;;;;;;4.68;2.60;;;15.30;99.90;;;;;;5051555;28;20052;-74
2022/07/10 02:56:08;;;;;;;4.30;2.30;;;15.30;99.90;;;;;;5051053;28;20056;-72
2022/07/10 02:58:34;;;;;;;3.92;2.25;;;15.40;99.90;;;;;;5050801;28;20086;-73
2022/07/10 03:01:00;;;;;;;4.53;2.58;;;15.40;99.90;;;;;;5052171;28;20029;-66
2022/07/10 03:03:26;;;;;;;5.88;2.35;;;15.40;99.90;;;;;;5050862;28;20456;-72
2022/07/10 03:05:52;;;;;;;4.63;2.53;;;15.40;99.90;;;;;;5050519;28;20045;-73
2022/07/10 03:08:17;;;;;;;4.63;2.50;;;15.40;99.90;;;;;;5050837;28;20146;-73
2022/07/10 03:10:44;;;;;;;3.92;2.33;;;15.40;99.90;;;;;;5054964;28;20040;-75
2022/07/10 03:13:10;;;;;;;4.47;2.75;;;15.40;99.90;;;;;;5051399;28;20060;-75
2022/07/10 03:15:36;;;;;;;4.72;2.58;;;15.40;99.90;;;;;;5051124;28;20379;-76
2022/07/10 03:18:02;;;;;;;3.13;2.53;;;15.40;99.90;;;;;;5051029;28;20079;-74
2022/07/10 03:20:28;;;;;;;6.30;2.90;;;15.40;99.90;;;;;;5050811;28;20029;-74
2022/07/10 03:22:54;;;;;;;6.60;2.78;;;15.40;99.90;;;;;;5050873;28;20486;-71
2022/07/10 03:25:19;;;;;;;6.03;2.38;;;15.50;99.90;;;;;;5050672;28;20040;-72
2022/07/10 03:27:45;;;;;;;5.07;2.33;;;15.60;99.90;;;;;;5050640;28;20071;-68
2022/07/10 03:30:11;;;;;;;7.55;2.65;;;15.60;99.90;;;;;;5050552;28;20032;-75
2022/07/10 03:32:37;;;;;;;3.85;2.38;;;15.60;99.90;;;;;;5082542;28;20116;-76
2022/07/10 03:35:03;;;;;;;2.97;2.33;;;15.70;99.90;;;;;;5069373;28;20024;-75
2022/07/10 03:37:29;;;;;;;4.57;2.03;;;15.70;99.90;;;;;;5073171;28;20027;-77
2022/07/10 03:39:55;;;;;;;4.47;2.35;;;15.70;99.90;;;;;;5075646;28;20025;-77
2022/07/10 03:42:21;;;;;;;4.70;2.47;;;15.80;99.90;;;;;;5075833;28;20032;-70
2022/07/10 03:44:46;;;;;;;3.40;2.05;;;15.90;99.90;;;;;;5075802;28;20020;-71
2022/07/10 03:47:12;;;;;;;5.85;2.50;;;15.90;99.90;;;;;;5075702;28;20549;-76
2022/07/10 03:49:38;;;;;;;4.40;2.92;;;16.40;99.90;;;;;;5075678;28;20035;-70
2022/07/10 03:52:05;;;;;;;3.88;2.58;;;17.40;99.90;;;;;;5075717;28;20028;-76
2022/07/10 03:54:31;;;;;;;5.07;2.83;;;18.60;99.90;;;;;;5075788;28;20069;-70
2022/07/10 03:59:42;;;;;;;4.07;2.17;;;19.80;99.90;;;;;;5075478;28;20029;-74
2022/07/10 04:02:08;;;;;;;3.70;2.35;;;20.40;99.90;;;;;;5075635;28;20008;-76
2022/07/10 04:04:34;;;;;;;2.92;2.25;;;20.80;98.30;;;;;;5075298;28;20471;-76
2022/07/10 04:07:00;;;;;;;4.30;2.33;;;21.50;98.60;;;;;;5075136;28;20017;-76
2022/07/10 04:09:26;;;;;;;2.47;2.22;;;22.40;98.10;;;;;;5075544;28;20032;-75
2022/07/10 04:11:52;;;;;;;3.47;2.65;;;;;;;;;;5075091;28;20479;-77
2022/07/10 04:14:18;;;;;;;3.88;2.47;;;;;;;;;;5075229;28;20110;-76
2022/07/10 04:16:44;;;;;;;4.10;2.55;;;22.60;94.40;;;;;;5075328;28;20035;-77
2022/07/10 04:19:10;;;;;;;4.70;2.40;;;22.60;92.80;;;;;;5075078;28;20033;-74
2022/07/10 04:21:36;;;;;;;1.90;1.80;;;22.70;92.10;;;;;;5074232;28;20016;-75
2022/07/10 04:24:03;;;;;;;5.28;2.50;;;23.40;97.20;;;;;;5074773;28;20405;-76
2022/07/10 04:26:29;;;;;;;3.85;2.30;;;23.60;93.70;;;;;;5075267;28;20082;-74
2022/07/10 04:28:55;;;;;;;4.05;2.50;;;23.40;92.00;;;;;;5075124;28;20433;-77
2022/07/10 04:31:21;;;;;;;5.43;3.00;;;24.20;93.80;;;;;;5075268;28;20060;-75
2022/07/10 04:33:47;;;;;;;2.42;2.05;;;23.80;93.00;;;;;;5075113;28;20035;-75
2022/07/10 04:36:12;;;;;;;3.47;2.50;;;23.60;92.90;;;;;;5074709;28;20024;-76
2022/07/10 04:38:38;;;;;;;2.38;2.10;;;24.00;95.00;;;;;;5074916;28;20123;-76
2022/07/10 04:41:05;;;;;;;3.33;2.13;;;23.60;96.20;;;;;;5074651;28;20521;-75
2022/07/10 04:43:33;;;;;;;4.43;2.53;;;23.70;99.90;;;;;;5074669;28;20029;-74
2022/07/10 04:45:59;;;;;;;5.07;2.20;;;23.70;91.50;;;;;;5074982;28;20013;-74
2022/07/10 04:48:25;;;;;;;3.88;2.47;;;;;;;;;;5073929;28;20024;-71
2022/07/10 04:50:51;;;;;;;5.95;2.75;;;25.00;97.80;;;;;;5074413;28;20034;-69
2022/07/10 04:53:17;;;;;;;4.45;2.60;;;24.30;94.50;;;;;;5074730;28;20123;-74
2022/07/10 04:55:43;;;;;;;2.72;2.05;;;23.80;94.50;;;;;;5074561;28;20021;-70
2022/07/10 04:58:09;;;;;;;5.28;1.73;;;23.30;98.30;;;;;;5074460;28;20085;-72
2022/07/10 05:00:34;;;;;;;3.33;2.13;;;23.60;99.90;;;;;;5074483;28;20131;-76
2022/07/10 05:03:00;;;;;;;2.50;2.15;;;23.80;99.90;;;;;;5074276;28;20028;-73
2022/07/10 05:05:26;;;;;;;3.78;1.95;;;22.00;99.90;;;;;;5073958;28;20024;-74
2022/07/10 05:07:53;;;;;;;6.38;2.45;;;;;;;;;;5074288;28;20141;-74
2022/07/10 05:10:19;;;;;;;2.83;2.10;;;;;;;;;;5074138;28;20052;-72
2022/07/10 05:12:45;;;;;;;4.10;2.25;;;21.10;99.20;;;;;;5074386;28;20125;-69
2022/07/10 05:15:13;;;;;;;5.40;2.15;;;20.90;99.60;;;;;;5074146;28;20442;-75
2022/07/10 05:17:39;;;;;;;2.60;1.58;;;20.40;99.80;;;;;;5074055;28;20017;-75
2022/07/10 05:20:05;;;;;;;3.05;1.98;;;20.50;99.90;;;;;;5074010;28;20074;-74
2022/07/10 05:22:32;;;;;;;6.68;2.33;;;20.60;99.90;;;;;;5074110;28;20027;-75
2022/07/10 05:24:57;;;;;;;1.83;1.73;;;20.50;99.90;;;;;;5074409;28;20486;-75
2022/07/10 05:27:24;;;;;;;2.40;1.70;;;20.70;99.90;;;;;;5074155;28;20024;-75
2022/07/10 05:29:50;;;;;;;3.30;2.28;;;20.90;99.90;;;;;;5073856;28;20021;-74
2022/07/10 05:32:16;;;;;;;3.35;1.98;;;20.70;99.90;;;;;;5073952;28;20024;-76
2022/07/10 05:34:42;;;;;;;3.20;2.50;;;20.80;99.90;;;;;;5074017;28;20016;-67
2022/07/10 05:37:07;;;;;;;3.80;2.08;;;21.00;99.90;;;;;;5073507;28;20082;-74
2022/07/10 05:39:34;;;;;;;7.30;2.53;;;21.50;99.90;;;;;;5073304;28;20115;-76
2022/07/10 05:41:59;;;;;;;3.63;2.20;;;21.50;99.90;;;;;;5073367;28;20160;-73
2022/07/10 05:44:25;;;;;;;3.45;1.92;;;21.40;99.90;;;;;;5073705;28;20033;-66
2022/07/10 05:46:51;;;;;;;4.05;2.10;;;21.10;99.90;;;;;;5073447;28;20024;-72
2022/07/10 05:49:17;;;;;;;3.38;2.30;;;20.90;99.90;;;;;;5073631;28;20024;-75
2022/07/10 05:51:43;;;;;;;1.77;1.67;;;20.60;99.90;;;;;;5073197;28;20391;-72
2022/07/10 05:54:09;;;;;;;5.22;2.15;;;20.60;99.90;;;;;;5073706;28;20482;-75
2022/07/10 05:56:35;;;;;;;2.17;1.98;;;21.00;99.90;;;;;;5073613;28;20052;-76
2022/07/10 05:59:01;;;;;;;4.82;1.52;;;21.20;99.90;;;;;;5073342;28;20458;-69
2022/07/10 06:01:27;;;;;;;2.50;1.73;;;21.30;99.90;;;;;;5072964;28;20474;-74
2022/07/10 06:03:53;;;;;;;4.93;1.92;;;21.40;99.90;;;;;;5073068;28;20074;-69
2022/07/10 06:06:18;;;;;;;2.53;1.77;;;21.30;99.90;;;;;;5073014;28;20036;-71
2022/07/10 06:08:48;;;;;;;5.93;1.52;;;21.20;99.90;;;;;;5072957;28;20029;-68
2022/07/10 06:11:13;;;;;;;4.63;2.08;;;21.00;99.90;;;;;;5072534;28;20040;-73
2022/07/10 06:13:39;;;;;;;2.97;1.85;;;21.10;99.90;;;;;;5072775;28;20398;-73
2022/07/10 06:16:05;;;;;;;2.53;1.80;;;21.30;99.90;;;;;;5073000;28;20100;-75
2022/07/10 06:18:31;;;;;;;3.00;1.63;;;21.60;99.90;;;;;;5070472;28;20032;-72
2022/07/10 06:20:57;;;;;;;4.50;1.92;;;21.70;99.90;;;;;;5091835;28;20032;-63
2022/07/10 06:23:23;;;;;;;5.78;2.15;;;21.60;99.90;;;;;;5089784;28;20030;-76
2022/07/10 06:25:49;;;;;;;3.13;1.90;;;21.60;99.90;;;;;;5072730;28;20024;-72
2022/07/10 06:28:16;;;;;;;2.35;1.70;;;22.00;99.90;;;;;;5072548;28;20032;-75
2022/07/10 06:30:42;;;;;;;4.78;1.85;;;22.40;99.90;;;;;;5071766;28;20101;-69
2022/07/10 06:33:08;;;;;;;2.92;1.48;;;22.60;97.90;;;;;;5071528;28;20020;-72
2022/07/10 06:35:34;;;;;;;2.42;1.45;;;22.20;97.60;;;;;;5071895;28;20067;-75
2022/07/10 06:38:01;;;;;;;2.28;1.33;;;22.10;99.20;;;;;;5071799;28;20032;-74
2022/07/10 06:40:35;;;;;;;1.88;1.30;;;22.30;99.20;;;;;;5072141;28;20114;-74
2022/07/10 06:43:01;;;;;;;2.80;1.60;;;22.40;97.80;;;;;;5072094;28;20043;-75
2022/07/10 06:45:27;;;;;;;1.92;1.55;;;22.40;98.50;;;;;;5072795;28;20031;-74
2022/07/10 06:47:56;;;;;;;3.22;1.65;;;22.60;98.60;;;;;;5072191;28;20025;-75
2022/07/10 06:50:23;;;;;;;2.58;1.40;;;22.70;96.50;;;;;;5071980;28;20024;-65
2022/07/10 06:52:50;;;;;;;5.22;1.73;;;22.60;97.60;;;;;;5071918;28;20025;-74
2022/07/10 06:55:16;;;;;;;1.92;1.40;;;22.50;95.50;;;;;;5072378;28;20025;-73
2022/07/10 06:57:42;;;;;;;2.72;1.50;;;22.50;96.90;;;;;;5071974;28;20104;-75
2022/07/10 07:00:11;;;;;;;1.80;1.20;;;22.60;97.30;;;;;;5072369;28;20376;-73
2022/07/10 07:02:37;;;;;;;1.75;1.40;;;23.00;97.90;;;;;;5072129;28;20107;-72
2022/07/10 07:05:04;;;;;;;2.03;1.50;;;23.10;98.00;;;;;;5071950;28;20083;-74
2022/07/10 07:07:30;;;;;;;2.05;1.45;;;22.80;97.40;;;;;;5071549;28;20343;-72
2022/07/10 07:09:56;;;;;;;2.55;1.92;;;22.50;96.30;;;;;;5071412;28;20115;-74
2022/07/10 07:12:22;;;;;;;2.20;1.65;;;22.70;97.30;;;;;;5073872;28;20051;-72
2022/07/10 07:14:48;;;;;;;2.60;1.60;;;23.10;99.60;;;;;;5074740;28;20028;-74
2022/07/10 07:17:21;;;;;;;5.60;1.65;;;23.00;96.20;;;;;;5075310;28;20378;-74
2022/07/10 07:25:15;;;;;;;4.32;1.70;;;23.60;94.60;;;;;;5075533;28;20037;-75
2022/07/10 07:27:41;;;;;;;1.30;1.20;;;23.70;95.30;;;;;;5075352;28;20020;-67
2022/07/10 07:30:10;;;;;;;2.28;1.30;;;23.70;94.50;;;;;;5075379;28;20077;-67
2022/07/10 07:32:37;;;;;;;3.03;1.27;;;23.60;95.80;;;;;;5075465;28;20103;-66
2022/07/10 07:35:03;;;;;;;2.60;1.45;;;23.50;95.10;;;;;;5075536;28;20029;-64
2022/07/10 07:37:40;;;;;;;2.53;1.60;;;23.40;94.60;;;;;;5075138;28;20025;-76
2022/07/10 07:40:08;;;;;;;2.88;1.45;;;23.60;96.10;;;;;;5075255;28;20067;-75
2022/07/10 07:42:35;;;;;;;1.27;1.10;;;23.70;95.90;;;;;;5075828;28;20036;-75
2022/07/10 07:45:01;;;;;;;1.45;1.20;;;23.80;96.80;;;;;;5075099;28;20611;-75
2022/07/10 07:47:27;;;;;;;3.13;1.10;;;24.00;96.70;;;;;;5075363;28;20108;-73
2022/07/10 07:49:55;;;;;;;3.00;1.40;;;23.70;96.60;;;;;;5069117;28;20035;-75
2022/07/10 07:52:22;;;;;;;2.60;1.75;;;23.90;96.00;;;;;;5075278;28;20020;-69
2022/07/10 07:54:50;;;;;;;3.50;1.63;;;24.10;94.50;;;;;;5074590;28;20029;-74
2022/07/10 07:57:16;;;;;;;1.65;1.30;;;23.90;95.50;;;;;;5075139;28;20017;-70
2022/07/10 07:59:42;;;;;;;3.50;1.55;;;23.50;95.50;;;;;;5074882;28;20441;-73
2022/07/10 08:02:08;;;;;;;4.05;1.85;;;23.30;95.60;;;;;;5072330;28;20108;-75
2022/07/10 08:04:34;;;;;;;1.40;1.30;;;23.10;97.50;;;;;;5060502;28;20052;-73
2022/07/10 08:07:01;;;;;;;1.40;1.30;;;22.90;97.00;;;;;;5074910;28;20016;-75
2022/07/10 08:09:27;;;;;;;2.15;1.33;;;23.10;97.10;;;;;;5075034;28;20035;-74
2022/07/10 08:11:52;;;;;;;2.05;1.30;;;23.70;95.10;;;;;;5074614;28;20044;-75
2022/07/10 08:14:18;;;;;;;1.60;1.20;;;23.70;94.90;;;;;;5075374;28;20479;-76
2022/07/10 08:16:47;;;;;;;2.28;1.20;;;23.90;95.50;;;;;;5074261;28;20111;-77
2022/07/10 08:19:15;;;;;;;2.67;1.25;;;24.10;94.10;;;;;;5062112;28;20036;-76
2022/07/10 08:21:41;;;;;;;2.17;1.45;;;24.10;93.90;;;;;;5072459;28;20505;-75
2022/07/10 08:24:07;;;;;;;1.80;1.48;;;24.30;92.80;;;;;;5072721;28;20025;-77
2022/07/10 08:26:32;;;;;;;1.90;1.23;;;24.40;93.00;;;;;;5073361;28;20016;-63
2022/07/10 08:28:58;;;;;;;1.42;1.30;;;24.10;93.40;;;;;;5072028;28;20561;-80
2022/07/10 08:31:24;;;;;;;2.53;1.13;;;23.90;93.40;;;;;;5071912;28;20378;-78
2022/07/10 08:33:52;;;;;;;1.40;0.90;;;23.70;95.50;;;;;;5067822;28;20032;-77
2022/07/10 08:36:18;;;;;;;1.38;1.27;;;23.30;95.30;;;;;;5073838;28;20016;-69
2022/07/10 08:38:44;;;;;;;2.13;1.52;;;23.30;95.80;;;;;;5073526;28;20364;-76
2022/07/10 08:41:12;;;;;;;1.70;1.20;;;23.20;96.00;;;;;;5073349;28;20032;-77
2022/07/10 08:43:38;;;;;;;1.15;1.02;;;23.20;96.90;;;;;;5068513;28;20033;-79
2022/07/10 08:46:05;;;;;;;2.88;1.23;;;23.00;96.10;;;;;;5056386;28;20024;-79
2022/07/10 08:48:36;;;;;;;4.00;1.17;;;23.40;97.10;;;;;;5057051;28;20035;-73
2022/07/10 08:51:06;;;;;;;1.05;1.00;;;23.00;94.10;;;;;;5073868;28;20040;-80
2022/07/10 08:53:32;;;;;;;3.28;1.38;;;23.50;95.60;;;;;;5073969;28;20684;-78
2022/07/10 08:55:59;;;;;;;2.72;1.60;;;23.50;95.60;;;;;;5074127;28;20576;-75
2022/07/10 08:58:27;;;;;;;2.30;1.50;;;23.70;94.70;;;;;;5071596;28;20044;-76
2022/07/10 09:00:53;;;;;;;2.72;1.38;;;23.60;94.20;;;;;;5071132;28;20032;-75
2022/07/10 09:03:19;;;;;;;3.08;1.45;;;23.60;93.90;;;;;;5073078;28;20091;-76
2022/07/10 09:05:46;;;;;;;1.45;1.20;;;23.70;93.00;;;;;;5073189;28;20020;-77
2022/07/10 09:08:31;;;;;;;2.45;1.30;;;23.80;94.90;;;;;;5073544;28;20111;-77
2022/07/10 09:11:17;;;;;;;1.00;0.82;;;23.90;93.40;;;;;;5072890;28;20465;-76
2022/07/10 09:13:56;;;;;;;1.88;1.30;;;24.30;93.00;;;;;;5073148;28;20308;-76
2022/07/10 09:16:33;;;;;;;2.17;0.93;;;24.30;93.40;;;;;;5076275;28;20529;-76
2022/07/10 09:19:17;;;;;;;2.15;1.10;;;24.30;93.30;;;;;;5076786;28;20032;-74
2022/07/10 09:21:44;;;;;;;2.58;1.15;;;24.60;96.40;;;;;;5068777;28;20024;-75
2022/07/10 09:24:10;;;;;;;0.88;0.85;;;24.70;93.70;;;;;;5073259;28;20028;-77
2022/07/10 09:26:38;;;;;;;3.60;1.20;;;24.50;92.80;;;;;;5073254;28;20027;-75
2022/07/10 09:29:10;;;;;;;17.08;1.58;;;24.60;95.50;;;;;;5072838;28;20352;-75
2022/07/10 09:32:09;;;;;;;0.88;0.88;;;24.80;95.50;;;;;;5077150;28;20020;-77
2022/07/10 09:34:48;;;;;;;1.52;1.15;;;24.70;92.20;;;;;;5002331;28;20157;-76
2022/07/10 09:37:27;;;;;;;3.25;1.00;;;24.60;92.80;;;;;;4992100;28;20042;-76
2022/07/10 09:40:05;;;;;;;1.38;0.90;;;24.30;91.90;;;;;;5002177;28;20038;-76
2022/07/10 09:42:34;;;;;;;1.00;0.95;;;24.30;91.40;;;;;;4990823;28;20046;-72
2022/07/10 09:45:12;;;;;;;1.33;1.08;;;24.50;92.70;;;;;;4990434;28;20038;-71
2022/07/10 09:47:43;;;;;;;4.80;0.98;;;24.40;94.30;;;;;;4990855;28;20026;-75
2022/07/10 09:50:25;;;;;;;2.70;1.17;;;24.60;93.10;;;;;;4989859;28;20035;-75
2022/07/10 09:53:14;;;;;;;4.10;1.30;;;25.00;92.00;;;;;;4991408;28;20050;-76
2022/07/10 09:55:42;;;;;;;2.80;0.98;;;25.10;91.70;;;;;;4991160;28;20031;-74
2022/07/10 09:58:09;;;;;;;2.22;1.08;;;25.00;91.70;;;;;;4991653;28;20569;-75
2022/07/10 10:00:37;;;;;;;0.93;0.80;;;25.30;91.80;;;;;;4988700;28;20085;-76
2022/07/10 10:03:05;;;;;;;1.42;0.75;;;25.40;91.80;;;;;;4989684;28;20034;-74
2022/07/10 10:05:43;;;;;;;2.40;0.95;;;25.40;91.80;;;;;;4989154;28;20408;-66
2022/07/10 10:08:48;;;;;;;1.83;1.02;;;25.40;92.00;;;;;;4992103;28;20035;-65
2022/07/10 10:11:22;;;;;;;1.95;0.75;;;25.40;90.90;;;;;;5050133;28;20490;-67
2022/07/10 10:13:49;;;;;;;2.65;0.80;;;25.60;91.20;;;;;;5067133;28;20024;-71
2022/07/10 10:16:16;;;;;;;3.08;1.00;;;26.00;91.90;;;;;;5075950;28;20021;-79
2022/07/10 10:21:30;;;;;;;0.75;0.70;;;25.80;90.40;;;;;;5076133;28;20016;-78
2022/07/10 10:23:56;;;;;;;1.20;1.02;;;25.40;90.80;;;;;;5066872;28;20487;-74
2022/07/10 10:26:24;;;;;;;1.17;0.60;;;25.60;93.50;;;;;;5053645;28;20037;-75
2022/07/10 10:28:53;;;;;;;0.82;0.75;;;25.60;94.20;;;;;;5050825;28;20468;-68
2022/07/10 10:31:20;;;;;;;0.85;0.70;;;25.20;93.10;;;;;;5051395;28;20021;-75
2022/07/10 10:33:48;;;;;;;0.57;0.57;;;25.20;90.20;;;;;;5051133;28;20025;-69
2022/07/10 10:36:36;;;;;;;0.63;0.60;;;25.10;90.60;;;;;;5051463;28;20476;-79
2022/07/10 10:39:10;;;;;;;0.80;0.80;;;25.10;91.60;;;;;;5058093;28;20110;-75
2022/07/10 10:41:52;;;;;;;2.38;0.70;;;25.00;90.90;;;;;;5069846;28;20051;-74
2022/07/10 10:44:18;;;;;;;0.73;0.63;;;25.00;89.80;;;;;;5071384;28;20041;-72
2022/07/10 10:47:05;;;;;;;0.65;0.60;;;24.90;91.00;;;;;;5073020;28;20017;-82
2022/07/10 10:49:52;;;;;;;0.70;0.70;;;24.90;89.40;;;;;;5072605;28;20060;-82
2022/07/10 10:52:18;;;;;;;0.60;0.60;;;24.90;90.20;;;;;;5072254;28;20032;-80
2022/07/10 10:55:02;;;;;;;1.38;0.70;;;25.10;92.60;;;;;;5067667;28;20526;-79
2022/07/10 10:57:39;;;;;;;0.80;0.80;;;25.40;91.50;;;;;;5069526;28;20043;-78
2022/07/10 11:00:07;;;;;;;0.85;0.77;;;25.40;90.50;;;;;;5072504;28;20040;-77
2022/07/10 11:02:39;;;;;;;2.25;0.80;;;25.40;90.40;;;;;;5072975;28;20056;-78
2022/07/10 11:05:11;;;;;;;;;;;25.30;90.70;;;;;;5072362;28;20019;-79
2022/07/10 11:07:58;;;;;;;1.65;0.90;;;25.20;90.80;;;;;;5071930;28;19954;-79
2022/07/10 11:10:29;;;;;;;1.25;0.90;;;25.50;91.50;;;;;;5070286;28;20093;-78
2022/07/10 11:13:17;;;;;;;1.75;1.00;;;25.70;91.30;;;;;;5071390;28;20387;-79
2022/07/10 11:15:47;;;;;;;1.38;1.05;;;25.80;90.80;;;;;;5060822;28;20024;-77
2022/07/10 11:18:13;;;;;;;4.72;1.27;;;25.60;91.10;;;;;;5072029;28;20036;-77
2022/07/10 11:20:41;;;;;;;1.23;1.00;;;25.50;87.60;;;;;;5072647;28;20025;-75
2022/07/10 11:23:28;;;;;;;0.88;0.88;;;25.30;87.70;;;;;;5072159;28;20029;-80
2022/07/10 11:26:20;;;;;;;4.95;0.88;;;25.30;90.10;;;;;;5064519;28;20028;-76
2022/07/10 11:28:46;;;;;;;1.25;1.00;;;25.40;90.50;;;;;;5072130;28;20028;-69
2022/07/10 11:31:12;;;;;;;1.25;0.88;;;25.90;91.30;;;;;;5072092;28;20040;-78
2022/07/10 11:33:46;;;;;;;3.38;1.20;;;26.00;89.70;;;;;;5069407;28;20039;-72
2022/07/10 11:36:26;;;;;;;2.15;1.23;;;25.90;91.50;;;;;;5050657;28;20041;-77
2022/07/10 11:39:01;;;;;;;3.17;1.17;;;25.70;91.00;;;;;;5050353;28;20045;-76
2022/07/10 11:41:28;;;;;;;1.35;1.25;;;26.00;92.70;;;;;;5050432;28;20496;-78
2022/07/10 11:43:58;;;;;;;2.08;1.30;;;25.80;98.20;;;;;;5064500;28;20020;-81
2022/07/10 11:46:29;;;;;;;3.22;1.17;;;26.20;99.60;;;;;;5072956;28;20024;-79
2022/07/10 11:48:58;;;;;;;3.88;1.27;;;25.60;99.90;;;;;;5058074;28;20104;-80
2022/07/10 11:51:28;;;;;;;1.35;1.00;;;25.60;99.90;;;;;;5080356;28;20119;-80
2022/07/10 11:54:01;;;;;;;3.40;0.77;;;25.70;99.50;;;;;;5072350;28;20032;-82
2022/07/10 11:56:30;;;;;;;1.13;0.80;;;25.80;99.80;;;;;;5051143;28;20036;-81
2022/07/10 11:58:58;;;;;;;1.95;1.13;;;26.20;99.90;;;;;;5057882;28;20111;-80
2022/07/10 12:01:24;;;;;;;2.67;1.08;;;;;;;;;;5076214;28;20375;-81
2022/07/10 12:03:58;;;;;;;2.72;1.08;;;26.40;90.80;;;;;;5075675;28;20100;-70
2022/07/10 12:06:25;;;;;;;1.65;1.20;;;26.40;92.40;;;;;;5077542;28;20054;-80
2022/07/10 12:08:51;;;;;;;1.25;0.98;;;26.20;92.00;;;;;;5071252;28;20029;-68
2022/07/10 12:11:19;;;;;;;2.45;1.13;;;26.10;91.30;;;;;;5071906;28;20487;-64
2022/07/10 12:13:46;;;;;;;1.30;1.02;;;26.30;91.30;;;;;;5075168;28;20124;-66
2022/07/10 12:16:12;;;;;;;1.50;1.13;;;26.20;90.80;;;;;;5074995;28;20028;-64
2022/07/10 12:18:41;;;;;;;2.97;1.00;;;26.10;91.00;;;;;;5074889;28;20501;-72
2022/07/10 12:21:11;;;;;;;1.02;0.88;;;26.10;91.70;;;;;;5075034;28;20104;-74
2022/07/10 12:23:39;;;;;;;5.10;1.38;;;26.10;91.80;;;;;;5077410;28;20024;-84
2022/07/10 12:26:07;;;;;;;3.83;1.13;;;26.10;92.00;;;;;;5095382;28;20043;-72
2022/07/10 12:28:48;;;;;;;2.38;1.15;;;26.00;91.90;;;;;;5073556;28;20056;-67
2022/07/10 12:31:21;;;;;;;1.60;1.00;;;26.00;91.70;;;;;;5068187;28;20032;-64
2022/07/10 12:33:52;;;;;;;1.92;1.30;;;26.00;90.10;;;;;;5071558;28;20036;-79
2022/07/10 12:36:18;;;;;;;1.55;0.90;;;26.10;91.90;;;;;;5073739;28;20115;-80
2022/07/10 12:38:54;;;;;;;5.60;1.40;;;26.30;91.30;;;;;;5074496;28;20390;-78
2022/07/10 12:41:24;;;;;;;2.88;1.17;;;26.30;91.00;;;;;;5073895;28;20025;-80
2022/07/10 12:43:51;;;;;;;1.27;1.00;;;26.20;91.80;;;;;;5074117;28;20025;-81
2022/07/10 12:46:22;;;;;;;2.05;1.20;;;25.90;90.50;;;;;;5074764;28;20029;-78
2022/07/10 12:49:01;;;;;;;1.80;1.03;;;25.90;90.30;;;;;;5074622;28;20108;-81
2022/07/10 12:51:29;;;;;;;3.58;1.15;;;25.90;91.00;;;;;;5072943;28;20028;-82
2022/07/10 12:53:56;;;;;;;1.13;1.00;;;26.00;92.70;;;;;;5072223;28;20406;-67
2022/07/10 12:56:36;;;;;;;1.50;1.00;;;25.90;90.10;;;;;;5067342;28;20103;-78
2022/07/10 12:59:12;;;;;;;1.42;1.08;;;26.30;90.80;;;;;;5063988;28;20028;-83
2022/07/10 13:01:45;;;;;;;0.68;0.68;;;26.30;90.30;;;;;;5067091;28;20032;-82
2022/07/10 13:04:11;;;;;;;3.00;0.98;;;26.40;89.00;;;;;;5072952;28;20043;-77
2022/07/10 13:06:39;;;;;;;1.23;1.05;;;26.10;91.60;;;;;;5069826;28;20167;-80
2022/07/10 13:09:22;;;;;;;3.20;1.10;;;26.20;89.90;;;;;;5069954;28;20032;-78
2022/07/10 13:11:52;;;;;;;1.35;1.10;;;26.20;90.00;;;;;;5072865;28;20041;-82